sensor_id;sensor_type;location;lat;lon;timestamp;P1;durP1;ratioP1;P2;durP2;ratioP2
2488;SDS011;1255;48.716;9.124;2022-07-23T00:01:00;4.90;;;4.50;;
2488;SDS011;1255;48.716;9.124;2022-07-23T00:03:27;5.30;;;4.80;;
2488;SDS011;1255;48.716;9.124;2022-07-23T00:05:54;4.90;;;4.50;;
2488;SDS011;1255;48.716;9.124;2022-07-23T00:08:20;5.93;;;5.33;;
2488;SDS011;1255;48.716;9.124;2022-07-23T00:10:48;5.50;;;5.10;;
2488;SDS011;1255;48.716;9.124;2022-07-23T00:13:15;5.30;;;4.90;;
2488;SDS011;1255;48.716;9.124;2022-07-23T00:15:42;5.03;;;4.60;;
2488;SDS011;1255;48.716;9.124;2022-07-23T00:18:08;4.77;;;4.37;;
2488;SDS011;1255;48.716;9.124;2022-07-23T00:20:35;4.90;;;4.40;;
2488;SDS011;1255;48.716;9.124;2022-07-23T00:23:02;5.13;;;4.73;;
2488;SDS011;1255;48.716;9.124;2022-07-23T00:25:28;4.90;;;4.50;;
2488;SDS011;1255;48.716;9.124;2022-07-23T00:27:56;4.20;;;3.90;;
2488;SDS011;1255;48.716;9.124;2022-07-23T00:30:23;5.33;;;4.83;;
2488;SDS011;1255;48.716;9.124;2022-07-23T00:32:51;4.67;;;4.27;;
2488;SDS011;1255;48.716;9.124;2022-07-23T00:35:21;5.37;;;4.40;;
2488;SDS011;1255;48.716;9.124;2022-07-23T00:37:48;4.80;;;4.40;;
2488;SDS011;1255;48.716;9.124;2022-07-23T00:40:15;4.53;;;4.13;;
2488;SDS011;1255;48.716;9.124;2022-07-23T00:42:42;4.80;;;4.40;;
2488;SDS011;1255;48.716;9.124;2022-07-23T00:45:15;4.80;;;4.40;;
2488;SDS011;1255;48.716;9.124;2022-07-23T00:47:42;4.60;;;4.20;;
2488;SDS011;1255;48.716;9.124;2022-07-23T00:50:09;4.63;;;4.23;;
2488;SDS011;1255;48.716;9.124;2022-07-23T00:52:36;4.93;;;4.53;;
2488;SDS011;1255;48.716;9.124;2022-07-23T00:55:05;4.60;;;4.20;;
2488;SDS011;1255;48.716;9.124;2022-07-23T00:57:32;4.90;;;4.50;;
2488;SDS011;1255;48.716;9.124;2022-07-23T00:59:59;4.90;;;4.40;;
2488;SDS011;1255;48.716;9.124;2022-07-23T01:02:27;5.47;;;4.97;;
2488;SDS011;1255;48.716;9.124;2022-07-23T01:04:54;4.60;;;4.20;;
2488;SDS011;1255;48.716;9.124;2022-07-23T01:07:21;5.30;;;4.37;;
2488;SDS011;1255;48.716;9.124;2022-07-23T01:09:48;5.43;;;4.17;;
2488;SDS011;1255;48.716;9.124;2022-07-23T01:12:16;4.93;;;4.53;;
2488;SDS011;1255;48.716;9.124;2022-07-23T01:14:43;5.03;;;4.50;;
2488;SDS011;1255;48.716;9.124;2022-07-23T01:17:10;4.60;;;4.17;;
2488;SDS011;1255;48.716;9.124;2022-07-23T01:19:38;5.10;;;4.57;;
2488;SDS011;1255;48.716;9.124;2022-07-23T01:22:04;4.50;;;4.20;;
2488;SDS011;1255;48.716;9.124;2022-07-23T01:24:33;4.60;;;4.17;;
2488;SDS011;1255;48.716;9.124;2022-07-23T01:27:00;4.30;;;3.80;;
2488;SDS011;1255;48.716;9.124;2022-07-23T01:29:27;4.10;;;3.80;;
2488;SDS011;1255;48.716;9.124;2022-07-23T01:31:53;4.47;;;4.07;;
2488;SDS011;1255;48.716;9.124;2022-07-23T01:34:20;4.50;;;4.10;;
2488;SDS011;1255;48.716;9.124;2022-07-23T01:36:47;5.00;;;3.77;;
2488;SDS011;1255;48.716;9.124;2022-07-23T01:39:13;4.17;;;3.80;;
2488;SDS011;1255;48.716;9.124;2022-07-23T01:41:41;4.60;;;4.20;;
2488;SDS011;1255;48.716;9.124;2022-07-23T01:44:08;4.43;;;4.03;;
2488;SDS011;1255;48.716;9.124;2022-07-23T01:46:35;4.53;;;4.17;;
2488;SDS011;1255;48.716;9.124;2022-07-23T01:49:01;4.70;;;4.30;;
2488;SDS011;1255;48.716;9.124;2022-07-23T01:51:28;4.10;;;3.80;;
2488;SDS011;1255;48.716;9.124;2022-07-23T01:53:55;4.53;;;4.13;;
2488;SDS011;1255;48.716;9.124;2022-07-23T01:56:21;5.13;;;4.60;;
2488;SDS011;1255;48.716;9.124;2022-07-23T01:58:49;4.63;;;4.27;;
2488;SDS011;1255;48.716;9.124;2022-07-23T02:01:16;4.37;;;3.97;;
2488;SDS011;1255;48.716;9.124;2022-07-23T02:03:43;4.60;;;4.20;;
2488;SDS011;1255;48.716;9.124;2022-07-23T02:06:10;4.07;;;3.73;;
2488;SDS011;1255;48.716;9.124;2022-07-23T02:08:36;4.50;;;4.10;;
2488;SDS011;1255;48.716;9.124;2022-07-23T02:11:03;5.10;;;4.47;;
2488;SDS011;1255;48.716;9.124;2022-07-23T02:13:30;3.87;;;3.57;;
2488;SDS011;1255;48.716;9.124;2022-07-23T02:15:58;4.73;;;4.30;;
2488;SDS011;1255;48.716;9.124;2022-07-23T02:18:24;4.50;;;4.10;;
2488;SDS011;1255;48.716;9.124;2022-07-23T02:20:51;4.70;;;4.30;;
2488;SDS011;1255;48.716;9.124;2022-07-23T02:23:18;4.70;;;4.30;;
2488;SDS011;1255;48.716;9.124;2022-07-23T02:25:44;4.40;;;4.00;;
2488;SDS011;1255;48.716;9.124;2022-07-23T02:28:11;5.20;;;4.70;;
2488;SDS011;1255;48.716;9.124;2022-07-23T02:30:38;6.20;;;4.97;;
2488;SDS011;1255;48.716;9.124;2022-07-23T02:33:06;4.40;;;4.00;;
2488;SDS011;1255;48.716;9.124;2022-07-23T02:35:33;5.03;;;4.43;;
2488;SDS011;1255;48.716;9.124;2022-07-23T02:37:59;4.90;;;4.40;;
2488;SDS011;1255;48.716;9.124;2022-07-23T02:40:26;5.20;;;4.70;;
2488;SDS011;1255;48.716;9.124;2022-07-23T02:42:53;5.10;;;4.60;;
2488;SDS011;1255;48.716;9.124;2022-07-23T02:45:19;5.30;;;4.80;;
2488;SDS011;1255;48.716;9.124;2022-07-23T02:47:46;4.50;;;4.10;;
2488;SDS011;1255;48.716;9.124;2022-07-23T02:50:14;6.10;;;4.60;;
2488;SDS011;1255;48.716;9.124;2022-07-23T02:52:40;5.23;;;4.83;;
2488;SDS011;1255;48.716;9.124;2022-07-23T02:55:07;4.73;;;4.33;;
2488;SDS011;1255;48.716;9.124;2022-07-23T02:57:35;5.73;;;5.17;;
2488;SDS011;1255;48.716;9.124;2022-07-23T03:00:02;5.30;;;4.90;;
2488;SDS011;1255;48.716;9.124;2022-07-23T03:02:30;4.63;;;4.23;;
2488;SDS011;1255;48.716;9.124;2022-07-23T03:04:57;5.10;;;4.70;;
2488;SDS011;1255;48.716;9.124;2022-07-23T03:07:25;5.00;;;4.60;;
2488;SDS011;1255;48.716;9.124;2022-07-23T03:09:52;4.93;;;4.53;;
2488;SDS011;1255;48.716;9.124;2022-07-23T03:12:18;6.33;;;4.30;;
2488;SDS011;1255;48.716;9.124;2022-07-23T03:14:45;4.87;;;4.47;;
2488;SDS011;1255;48.716;9.124;2022-07-23T03:17:12;5.00;;;4.50;;
2488;SDS011;1255;48.716;9.124;2022-07-23T03:19:39;5.20;;;4.70;;
2488;SDS011;1255;48.716;9.124;2022-07-23T03:22:05;5.10;;;4.60;;
2488;SDS011;1255;48.716;9.124;2022-07-23T03:24:34;5.43;;;4.87;;
2488;SDS011;1255;48.716;9.124;2022-07-23T03:27:18;5.20;;;4.67;;
2488;SDS011;1255;48.716;9.124;2022-07-23T03:29:44;5.00;;;4.30;;
2488;SDS011;1255;48.716;9.124;2022-07-23T03:32:11;5.47;;;4.97;;
2488;SDS011;1255;48.716;9.124;2022-07-23T03:34:38;5.07;;;4.67;;
2488;SDS011;1255;48.716;9.124;2022-07-23T03:37:04;5.70;;;5.20;;
2488;SDS011;1255;48.716;9.124;2022-07-23T03:39:31;8.00;;;4.83;;
2488;SDS011;1255;48.716;9.124;2022-07-23T03:41:59;5.40;;;5.00;;
2488;SDS011;1255;48.716;9.124;2022-07-23T03:44:26;5.10;;;4.70;;
2488;SDS011;1255;48.716;9.124;2022-07-23T03:46:52;5.30;;;4.80;;
2488;SDS011;1255;48.716;9.124;2022-07-23T03:49:19;4.70;;;4.40;;
2488;SDS011;1255;48.716;9.124;2022-07-23T03:51:46;6.97;;;4.80;;
2488;SDS011;1255;48.716;9.124;2022-07-23T03:54:13;5.10;;;4.70;;
2488;SDS011;1255;48.716;9.124;2022-07-23T03:59:14;5.43;;;5.03;;
2488;SDS011;1255;48.716;9.124;2022-07-23T04:01:41;5.60;;;5.10;;
2488;SDS011;1255;48.716;9.124;2022-07-23T04:04:08;5.13;;;4.73;;
2488;SDS011;1255;48.716;9.124;2022-07-23T04:06:34;5.63;;;5.00;;
2488;SDS011;1255;48.716;9.124;2022-07-23T04:09:01;5.20;;;4.70;;
2488;SDS011;1255;48.716;9.124;2022-07-23T04:11:29;6.00;;;5.47;;
2488;SDS011;1255;48.716;9.124;2022-07-23T04:13:56;5.70;;;4.97;;
2488;SDS011;1255;48.716;9.124;2022-07-23T04:16:24;5.10;;;4.60;;
2488;SDS011;1255;48.716;9.124;2022-07-23T04:18:51;5.60;;;5.10;;
2488;SDS011;1255;48.716;9.124;2022-07-23T04:21:17;6.40;;;5.80;;
2488;SDS011;1255;48.716;9.124;2022-07-23T04:23:44;4.90;;;4.50;;
2488;SDS011;1255;48.716;9.124;2022-07-23T04:26:11;5.67;;;5.20;;
2488;SDS011;1255;48.716;9.124;2022-07-23T04:28:37;6.13;;;5.40;;
2488;SDS011;1255;48.716;9.124;2022-07-23T04:31:04;4.93;;;4.53;;
2488;SDS011;1255;48.716;9.124;2022-07-23T04:33:32;6.13;;;5.20;;
2488;SDS011;1255;48.716;9.124;2022-07-23T04:35:59;5.70;;;5.20;;
2488;SDS011;1255;48.716;9.124;2022-07-23T04:38:25;5.90;;;5.40;;
2488;SDS011;1255;48.716;9.124;2022-07-23T04:40:52;5.67;;;5.13;;
2488;SDS011;1255;48.716;9.124;2022-07-23T04:43:19;5.80;;;5.20;;
2488;SDS011;1255;48.716;9.124;2022-07-23T04:45:45;5.17;;;4.77;;
2488;SDS011;1255;48.716;9.124;2022-07-23T04:48:12;5.30;;;4.80;;
2488;SDS011;1255;48.716;9.124;2022-07-23T04:50:40;6.53;;;5.20;;
2488;SDS011;1255;48.716;9.124;2022-07-23T04:53:07;5.37;;;4.87;;
2488;SDS011;1255;48.716;9.124;2022-07-23T04:55:34;6.23;;;5.47;;
2488;SDS011;1255;48.716;9.124;2022-07-23T04:58:01;5.60;;;5.00;;
2488;SDS011;1255;48.716;9.124;2022-07-23T05:00:27;5.20;;;4.70;;
2488;SDS011;1255;48.716;9.124;2022-07-23T05:02:54;5.00;;;4.60;;
2488;SDS011;1255;48.716;9.124;2022-07-23T05:05:21;6.57;;;5.60;;
2488;SDS011;1255;48.716;9.124;2022-07-23T05:07:49;5.37;;;4.87;;
2488;SDS011;1255;48.716;9.124;2022-07-23T05:10:16;5.40;;;4.90;;
2488;SDS011;1255;48.716;9.124;2022-07-23T05:12:43;5.50;;;5.00;;
2488;SDS011;1255;48.716;9.124;2022-07-23T05:15:09;6.27;;;5.67;;
2488;SDS011;1255;48.716;9.124;2022-07-23T05:17:36;5.10;;;4.70;;
2488;SDS011;1255;48.716;9.124;2022-07-23T05:20:03;5.30;;;4.90;;
2488;SDS011;1255;48.716;9.124;2022-07-23T05:22:30;5.37;;;4.97;;
2488;SDS011;1255;48.716;9.124;2022-07-23T05:24:59;6.25;;;5.72;;
2488;SDS011;1255;48.716;9.124;2022-07-23T05:27:26;6.03;;;5.37;;
2488;SDS011;1255;48.716;9.124;2022-07-23T05:29:52;5.93;;;5.43;;
2488;SDS011;1255;48.716;9.124;2022-07-23T05:32:19;6.10;;;5.50;;
2488;SDS011;1255;48.716;9.124;2022-07-23T05:34:46;5.87;;;5.07;;
2488;SDS011;1255;48.716;9.124;2022-07-23T05:37:12;5.53;;;5.07;;
2488;SDS011;1255;48.716;9.124;2022-07-23T05:39:39;5.87;;;5.37;;
2488;SDS011;1255;48.716;9.124;2022-07-23T05:42:07;6.23;;;5.70;;
2488;SDS011;1255;48.716;9.124;2022-07-23T05:44:34;7.40;;;5.50;;
2488;SDS011;1255;48.716;9.124;2022-07-23T05:47:00;6.40;;;5.80;;
2488;SDS011;1255;48.716;9.124;2022-07-23T05:49:27;6.40;;;5.80;;
2488;SDS011;1255;48.716;9.124;2022-07-23T05:51:54;5.60;;;5.10;;
2488;SDS011;1255;48.716;9.124;2022-07-23T05:54:21;6.50;;;5.90;;
2488;SDS011;1255;48.716;9.124;2022-07-23T05:56:48;6.90;;;5.93;;
2488;SDS011;1255;48.716;9.124;2022-07-23T05:59:16;6.63;;;6.07;;
2488;SDS011;1255;48.716;9.124;2022-07-23T06:01:43;7.20;;;5.30;;
2488;SDS011;1255;48.716;9.124;2022-07-23T06:04:09;5.88;;;5.38;;
2488;SDS011;1255;48.716;9.124;2022-07-23T06:06:36;6.90;;;6.30;;
2488;SDS011;1255;48.716;9.124;2022-07-23T06:09:03;5.90;;;5.30;;
2488;SDS011;1255;48.716;9.124;2022-07-23T06:11:30;6.30;;;5.40;;
2488;SDS011;1255;48.716;9.124;2022-07-23T06:13:56;6.13;;;5.53;;
2488;SDS011;1255;48.716;9.124;2022-07-23T06:16:25;6.20;;;5.70;;
2488;SDS011;1255;48.716;9.124;2022-07-23T06:18:51;6.37;;;5.77;;
2488;SDS011;1255;48.716;9.124;2022-07-23T06:21:18;6.20;;;5.70;;
2488;SDS011;1255;48.716;9.124;2022-07-23T06:23:45;6.03;;;5.53;;
2488;SDS011;1255;48.716;9.124;2022-07-23T06:26:11;6.37;;;5.77;;
2488;SDS011;1255;48.716;9.124;2022-07-23T06:28:38;6.03;;;5.43;;
2488;SDS011;1255;48.716;9.124;2022-07-23T06:31:05;6.47;;;5.83;;
2488;SDS011;1255;48.716;9.124;2022-07-23T06:33:33;6.53;;;5.77;;
2488;SDS011;1255;48.716;9.124;2022-07-23T06:35:59;7.93;;;5.93;;
2488;SDS011;1255;48.716;9.124;2022-07-23T06:38:26;6.00;;;5.40;;
2488;SDS011;1255;48.716;9.124;2022-07-23T06:40:53;5.83;;;5.33;;
2488;SDS011;1255;48.716;9.124;2022-07-23T06:43:19;6.43;;;5.83;;
2488;SDS011;1255;48.716;9.124;2022-07-23T06:45:46;6.70;;;6.10;;
2488;SDS011;1255;48.716;9.124;2022-07-23T06:48:13;5.73;;;5.23;;
2488;SDS011;1255;48.716;9.124;2022-07-23T06:50:41;6.53;;;6.03;;
2488;SDS011;1255;48.716;9.124;2022-07-23T06:53:07;6.07;;;5.50;;
2488;SDS011;1255;48.716;9.124;2022-07-23T06:55:34;6.03;;;5.53;;
2488;SDS011;1255;48.716;9.124;2022-07-23T06:58:03;6.00;;;5.50;;
2488;SDS011;1255;48.716;9.124;2022-07-23T07:00:30;6.00;;;5.30;;
2488;SDS011;1255;48.716;9.124;2022-07-23T07:02:57;5.70;;;5.20;;
2488;SDS011;1255;48.716;9.124;2022-07-23T07:05:24;5.97;;;5.47;;
2488;SDS011;1255;48.716;9.124;2022-07-23T07:07:53;6.90;;;6.10;;
2488;SDS011;1255;48.716;9.124;2022-07-23T07:10:20;5.90;;;5.40;;
2488;SDS011;1255;48.716;9.124;2022-07-23T07:12:47;6.20;;;5.70;;
2488;SDS011;1255;48.716;9.124;2022-07-23T07:15:14;8.10;;;6.33;;
2488;SDS011;1255;48.716;9.124;2022-07-23T07:17:41;8.40;;;5.70;;
2488;SDS011;1255;48.716;9.124;2022-07-23T07:20:09;6.43;;;5.70;;
2488;SDS011;1255;48.716;9.124;2022-07-23T07:22:36;6.57;;;6.03;;
2488;SDS011;1255;48.716;9.124;2022-07-23T07:25:04;6.83;;;6.17;;
2488;SDS011;1255;48.716;9.124;2022-07-23T07:27:32;6.50;;;5.90;;
2488;SDS011;1255;48.716;9.124;2022-07-23T07:29:58;5.70;;;5.20;;
2488;SDS011;1255;48.716;9.124;2022-07-23T07:32:25;6.13;;;5.63;;
2488;SDS011;1255;48.716;9.124;2022-07-23T07:34:52;6.47;;;5.57;;
2488;SDS011;1255;48.716;9.124;2022-07-23T07:37:19;5.30;;;4.90;;
2488;SDS011;1255;48.716;9.124;2022-07-23T07:39:45;5.80;;;5.30;;
2488;SDS011;1255;48.716;9.124;2022-07-23T07:42:13;5.70;;;5.20;;
2488;SDS011;1255;48.716;9.124;2022-07-23T07:44:40;6.20;;;5.70;;
2488;SDS011;1255;48.716;9.124;2022-07-23T07:47:07;5.73;;;5.20;;
2488;SDS011;1255;48.716;9.124;2022-07-23T07:49:34;5.50;;;5.00;;
2488;SDS011;1255;48.716;9.124;2022-07-23T07:52:00;5.90;;;5.40;;
2488;SDS011;1255;48.716;9.124;2022-07-23T07:54:27;8.43;;;5.53;;
2488;SDS011;1255;48.716;9.124;2022-07-23T07:56:54;6.57;;;5.90;;
2488;SDS011;1255;48.716;9.124;2022-07-23T07:59:22;5.87;;;5.37;;
2488;SDS011;1255;48.716;9.124;2022-07-23T08:01:48;6.80;;;6.10;;
2488;SDS011;1255;48.716;9.124;2022-07-23T08:04:15;6.90;;;6.30;;
2488;SDS011;1255;48.716;9.124;2022-07-23T08:06:42;8.77;;;6.73;;
2488;SDS011;1255;48.716;9.124;2022-07-23T08:09:09;6.10;;;5.47;;
2488;SDS011;1255;48.716;9.124;2022-07-23T08:11:35;6.17;;;5.67;;
2488;SDS011;1255;48.716;9.124;2022-07-23T08:14:02;7.07;;;5.20;;
2488;SDS011;1255;48.716;9.124;2022-07-23T08:16:30;6.30;;;5.80;;
2488;SDS011;1255;48.716;9.124;2022-07-23T08:18:57;6.17;;;5.70;;
2488;SDS011;1255;48.716;9.124;2022-07-23T08:21:24;6.33;;;5.73;;
2488;SDS011;1255;48.716;9.124;2022-07-23T08:23:51;6.10;;;5.50;;
2488;SDS011;1255;48.716;9.124;2022-07-23T08:26:17;5.73;;;5.30;;
2488;SDS011;1255;48.716;9.124;2022-07-23T08:28:44;5.77;;;5.27;;
2488;SDS011;1255;48.716;9.124;2022-07-23T08:31:11;5.90;;;5.40;;
2488;SDS011;1255;48.716;9.124;2022-07-23T08:33:39;6.33;;;5.73;;
2488;SDS011;1255;48.716;9.124;2022-07-23T08:36:06;5.13;;;4.73;;
2488;SDS011;1255;48.716;9.124;2022-07-23T08:38:33;5.57;;;4.87;;
2488;SDS011;1255;48.716;9.124;2022-07-23T08:41:01;6.17;;;5.50;;
2488;SDS011;1255;48.716;9.124;2022-07-23T08:43:30;5.77;;;5.37;;
2488;SDS011;1255;48.716;9.124;2022-07-23T08:46:00;6.10;;;5.60;;
2488;SDS011;1255;48.716;9.124;2022-07-23T08:48:28;6.00;;;5.53;;
2488;SDS011;1255;48.716;9.124;2022-07-23T08:50:59;5.83;;;5.00;;
2488;SDS011;1255;48.716;9.124;2022-07-23T08:53:27;5.50;;;5.00;;
2488;SDS011;1255;48.716;9.124;2022-07-23T08:55:55;5.47;;;4.97;;
2488;SDS011;1255;48.716;9.124;2022-07-23T08:58:23;5.80;;;5.30;;
2488;SDS011;1255;48.716;9.124;2022-07-23T09:00:51;5.63;;;5.10;;
2488;SDS011;1255;48.716;9.124;2022-07-23T09:03:19;5.03;;;4.63;;
2488;SDS011;1255;48.716;9.124;2022-07-23T09:05:48;6.17;;;5.67;;
2488;SDS011;1255;48.716;9.124;2022-07-23T09:08:18;5.30;;;4.90;;
2488;SDS011;1255;48.716;9.124;2022-07-23T09:10:50;5.63;;;5.13;;
2488;SDS011;1255;48.716;9.124;2022-07-23T09:13:27;5.90;;;5.37;;
2488;SDS011;1255;48.716;9.124;2022-07-23T09:15:59;6.00;;;5.50;;
2488;SDS011;1255;48.716;9.124;2022-07-23T09:18:28;5.33;;;4.90;;
2488;SDS011;1255;48.716;9.124;2022-07-23T09:26:25;5.40;;;4.90;;
2488;SDS011;1255;48.716;9.124;2022-07-23T09:28:57;5.93;;;5.37;;
2488;SDS011;1255;48.716;9.124;2022-07-23T09:31:31;5.73;;;5.23;;
2488;SDS011;1255;48.716;9.124;2022-07-23T09:34:07;7.20;;;5.93;;
2488;SDS011;1255;48.716;9.124;2022-07-23T09:36:35;5.80;;;5.20;;
2488;SDS011;1255;48.716;9.124;2022-07-23T09:39:02;6.70;;;6.10;;
2488;SDS011;1255;48.716;9.124;2022-07-23T09:41:35;5.90;;;5.40;;
2488;SDS011;1255;48.716;9.124;2022-07-23T09:44:07;7.60;;;5.20;;
2488;SDS011;1255;48.716;9.124;2022-07-23T09:46:35;6.50;;;5.80;;
2488;SDS011;1255;48.716;9.124;2022-07-23T09:49:09;5.83;;;5.33;;
2488;SDS011;1255;48.716;9.124;2022-07-23T09:51:43;6.57;;;5.97;;
2488;SDS011;1255;48.716;9.124;2022-07-23T09:54:22;6.73;;;5.33;;
2488;SDS011;1255;48.716;9.124;2022-07-23T09:56:57;6.13;;;5.57;;
2488;SDS011;1255;48.716;9.124;2022-07-23T09:59:31;6.67;;;6.17;;
2488;SDS011;1255;48.716;9.124;2022-07-23T10:01:59;6.87;;;6.27;;
2488;SDS011;1255;48.716;9.124;2022-07-23T10:04:36;7.13;;;6.53;;
2488;SDS011;1255;48.716;9.124;2022-07-23T10:07:04;6.70;;;6.07;;
2488;SDS011;1255;48.716;9.124;2022-07-23T10:09:32;6.77;;;6.27;;
2488;SDS011;1255;48.716;9.124;2022-07-23T10:12:03;6.43;;;5.83;;
2488;SDS011;1255;48.716;9.124;2022-07-23T10:14:40;7.03;;;6.40;;
2488;SDS011;1255;48.716;9.124;2022-07-23T10:22:10;7.37;;;6.77;;
2488;SDS011;1255;48.716;9.124;2022-07-23T10:24:43;7.37;;;6.67;;
2488;SDS011;1255;48.716;9.124;2022-07-23T10:27:26;6.23;;;5.60;;
2488;SDS011;1255;48.716;9.124;2022-07-23T10:30:10;5.60;;;5.10;;
2488;SDS011;1255;48.716;9.124;2022-07-23T10:32:45;7.60;;;6.23;;
2488;SDS011;1255;48.716;9.124;2022-07-23T10:35:22;6.60;;;6.00;;
2488;SDS011;1255;48.716;9.124;2022-07-23T10:37:54;6.10;;;5.50;;
2488;SDS011;1255;48.716;9.124;2022-07-23T10:40:28;6.00;;;5.50;;
2488;SDS011;1255;48.716;9.124;2022-07-23T10:43:00;5.70;;;5.20;;
2488;SDS011;1255;48.716;9.124;2022-07-23T10:45:29;6.03;;;5.53;;
2488;SDS011;1255;48.716;9.124;2022-07-23T10:48:11;5.90;;;5.40;;
2488;SDS011;1255;48.716;9.124;2022-07-23T10:50:40;6.10;;;5.60;;
2488;SDS011;1255;48.716;9.124;2022-07-23T10:53:15;6.73;;;6.13;;
2488;SDS011;1255;48.716;9.124;2022-07-23T10:55:45;5.93;;;5.43;;
2488;SDS011;1255;48.716;9.124;2022-07-23T10:58:23;5.90;;;5.40;;
2488;SDS011;1255;48.716;9.124;2022-07-23T11:01:33;5.90;;;5.30;;
2488;SDS011;1255;48.716;9.124;2022-07-23T11:04:02;6.00;;;5.50;;
2488;SDS011;1255;48.716;9.124;2022-07-23T11:09:38;5.50;;;5.10;;
2488;SDS011;1255;48.716;9.124;2022-07-23T11:15:03;6.30;;;5.70;;
2488;SDS011;1255;48.716;9.124;2022-07-23T11:17:33;5.50;;;5.10;;
2488;SDS011;1255;48.716;9.124;2022-07-23T11:20:21;6.00;;;5.40;;
2488;SDS011;1255;48.716;9.124;2022-07-23T11:22:50;5.70;;;5.30;;
2488;SDS011;1255;48.716;9.124;2022-07-23T11:25:31;6.10;;;5.60;;
2488;SDS011;1255;48.716;9.124;2022-07-23T11:28:08;5.70;;;5.17;;
2488;SDS011;1255;48.716;9.124;2022-07-23T11:30:47;6.20;;;5.70;;
2488;SDS011;1255;48.716;9.124;2022-07-23T11:33:18;6.37;;;5.80;;
2488;SDS011;1255;48.716;9.124;2022-07-23T11:35:48;5.90;;;5.40;;
2488;SDS011;1255;48.716;9.124;2022-07-23T11:38:25;6.80;;;6.20;;
2488;SDS011;1255;48.716;9.124;2022-07-23T11:40:52;6.37;;;5.87;;
2488;SDS011;1255;48.716;9.124;2022-07-23T11:43:21;5.83;;;5.33;;
2488;SDS011;1255;48.716;9.124;2022-07-23T11:45:50;6.17;;;5.67;;
2488;SDS011;1255;48.716;9.124;2022-07-23T11:48:22;5.83;;;5.30;;
2488;SDS011;1255;48.716;9.124;2022-07-23T11:50:51;6.03;;;5.53;;
2488;SDS011;1255;48.716;9.124;2022-07-23T11:53:22;5.43;;;4.93;;
2488;SDS011;1255;48.716;9.124;2022-07-23T11:55:49;6.30;;;5.80;;
2488;SDS011;1255;48.716;9.124;2022-07-23T11:58:17;5.90;;;5.40;;
2488;SDS011;1255;48.716;9.124;2022-07-23T12:00:44;5.93;;;5.43;;
2488;SDS011;1255;48.716;9.124;2022-07-23T12:03:12;6.40;;;5.80;;
2488;SDS011;1255;48.716;9.124;2022-07-23T12:05:39;6.07;;;5.57;;
2488;SDS011;1255;48.716;9.124;2022-07-23T12:08:06;6.20;;;5.60;;
2488;SDS011;1255;48.716;9.124;2022-07-23T12:10:35;5.80;;;5.30;;
2488;SDS011;1255;48.716;9.124;2022-07-23T12:13:03;6.80;;;6.30;;
2488;SDS011;1255;48.716;9.124;2022-07-23T12:15:31;6.27;;;5.77;;
2488;SDS011;1255;48.716;9.124;2022-07-23T12:18:04;6.53;;;5.93;;
2488;SDS011;1255;48.716;9.124;2022-07-23T12:20:35;5.40;;;5.00;;
2488;SDS011;1255;48.716;9.124;2022-07-23T12:23:04;6.10;;;5.60;;
2488;SDS011;1255;48.716;9.124;2022-07-23T12:25:35;5.67;;;5.20;;
2488;SDS011;1255;48.716;9.124;2022-07-23T12:28:04;7.07;;;6.50;;
2488;SDS011;1255;48.716;9.124;2022-07-23T12:30:33;6.90;;;6.30;;
2488;SDS011;1255;48.716;9.124;2022-07-23T12:33:03;6.90;;;6.40;;
2488;SDS011;1255;48.716;9.124;2022-07-23T12:35:32;5.80;;;5.40;;
2488;SDS011;1255;48.716;9.124;2022-07-23T12:38:04;6.03;;;5.53;;
2488;SDS011;1255;48.716;9.124;2022-07-23T12:40:33;6.00;;;5.50;;
2488;SDS011;1255;48.716;9.124;2022-07-23T12:43:02;6.53;;;6.03;;
2488;SDS011;1255;48.716;9.124;2022-07-23T12:45:44;6.40;;;5.90;;
2488;SDS011;1255;48.716;9.124;2022-07-23T12:48:16;6.63;;;6.03;;
2488;SDS011;1255;48.716;9.124;2022-07-23T12:50:49;6.87;;;6.30;;
2488;SDS011;1255;48.716;9.124;2022-07-23T12:53:19;7.10;;;6.50;;
2488;SDS011;1255;48.716;9.124;2022-07-23T12:55:47;6.57;;;5.97;;
2488;SDS011;1255;48.716;9.124;2022-07-23T12:58:15;7.13;;;6.30;;
2488;SDS011;1255;48.716;9.124;2022-07-23T13:00:54;7.27;;;6.57;;
2488;SDS011;1255;48.716;9.124;2022-07-23T13:03:23;7.17;;;6.00;;
2488;SDS011;1255;48.716;9.124;2022-07-23T13:05:52;6.00;;;5.57;;
2488;SDS011;1255;48.716;9.124;2022-07-23T13:08:20;7.80;;;6.23;;
2488;SDS011;1255;48.716;9.124;2022-07-23T13:10:48;6.40;;;5.90;;
2488;SDS011;1255;48.716;9.124;2022-07-23T13:13:16;5.97;;;5.47;;
2488;SDS011;1255;48.716;9.124;2022-07-23T13:15:45;6.03;;;5.53;;
2488;SDS011;1255;48.716;9.124;2022-07-23T13:18:12;6.17;;;5.53;;
2488;SDS011;1255;48.716;9.124;2022-07-23T13:20:39;6.27;;;5.63;;
2488;SDS011;1255;48.716;9.124;2022-07-23T13:23:07;7.13;;;6.40;;
2488;SDS011;1255;48.716;9.124;2022-07-23T13:25:34;6.40;;;5.83;;
2488;SDS011;1255;48.716;9.124;2022-07-23T13:28:00;6.53;;;5.93;;
2488;SDS011;1255;48.716;9.124;2022-07-23T13:30:28;7.17;;;5.93;;
2488;SDS011;1255;48.716;9.124;2022-07-23T13:32:55;6.67;;;6.07;;
2488;SDS011;1255;48.716;9.124;2022-07-23T13:35:21;6.37;;;5.87;;
2488;SDS011;1255;48.716;9.124;2022-07-23T13:37:49;6.70;;;6.10;;
2488;SDS011;1255;48.716;9.124;2022-07-23T13:40:17;6.80;;;6.30;;
2488;SDS011;1255;48.716;9.124;2022-07-23T13:42:44;6.70;;;6.10;;
2488;SDS011;1255;48.716;9.124;2022-07-23T13:45:11;6.43;;;5.60;;
2488;SDS011;1255;48.716;9.124;2022-07-23T13:47:37;6.33;;;5.80;;
2488;SDS011;1255;48.716;9.124;2022-07-23T13:50:05;7.13;;;6.60;;
2488;SDS011;1255;48.716;9.124;2022-07-23T13:52:32;6.00;;;5.50;;
2488;SDS011;1255;48.716;9.124;2022-07-23T13:54:59;6.33;;;5.83;;
2488;SDS011;1255;48.716;9.124;2022-07-23T13:57:28;6.50;;;6.00;;
2488;SDS011;1255;48.716;9.124;2022-07-23T13:59:54;6.70;;;6.20;;
2488;SDS011;1255;48.716;9.124;2022-07-23T14:02:21;6.30;;;5.80;;
2488;SDS011;1255;48.716;9.124;2022-07-23T14:04:48;6.30;;;5.80;;
2488;SDS011;1255;48.716;9.124;2022-07-23T14:07:15;6.77;;;6.07;;
2488;SDS011;1255;48.716;9.124;2022-07-23T14:09:42;7.83;;;7.20;;
2488;SDS011;1255;48.716;9.124;2022-07-23T14:12:09;7.47;;;6.90;;
2488;SDS011;1255;48.716;9.124;2022-07-23T14:14:37;7.60;;;6.90;;
2488;SDS011;1255;48.716;9.124;2022-07-23T14:17:03;7.50;;;6.90;;
2488;SDS011;1255;48.716;9.124;2022-07-23T14:19:30;7.60;;;7.00;;
2488;SDS011;1255;48.716;9.124;2022-07-23T14:21:57;8.20;;;7.40;;
2488;SDS011;1255;48.716;9.124;2022-07-23T14:24:24;7.70;;;7.00;;
2488;SDS011;1255;48.716;9.124;2022-07-23T14:26:50;7.60;;;7.00;;
2488;SDS011;1255;48.716;9.124;2022-07-23T14:29:17;7.30;;;6.70;;
2488;SDS011;1255;48.716;9.124;2022-07-23T14:31:45;7.13;;;6.43;;
2488;SDS011;1255;48.716;9.124;2022-07-23T14:34:12;7.50;;;6.77;;
2488;SDS011;1255;48.716;9.124;2022-07-23T14:36:38;7.03;;;6.17;;
2488;SDS011;1255;48.716;9.124;2022-07-23T14:39:05;6.60;;;6.00;;
2488;SDS011;1255;48.716;9.124;2022-07-23T14:41:33;7.23;;;6.63;;
2488;SDS011;1255;48.716;9.124;2022-07-23T14:44:00;6.73;;;6.17;;
2488;SDS011;1255;48.716;9.124;2022-07-23T14:46:27;7.20;;;6.60;;
2488;SDS011;1255;48.716;9.124;2022-07-23T14:48:55;6.20;;;5.73;;
2488;SDS011;1255;48.716;9.124;2022-07-23T14:51:22;6.10;;;5.60;;
2488;SDS011;1255;48.716;9.124;2022-07-23T14:53:49;6.43;;;5.93;;
2488;SDS011;1255;48.716;9.124;2022-07-23T14:56:15;6.60;;;6.00;;
2488;SDS011;1255;48.716;9.124;2022-07-23T14:58:42;6.77;;;6.17;;
2488;SDS011;1255;48.716;9.124;2022-07-23T15:01:09;7.73;;;5.90;;
2488;SDS011;1255;48.716;9.124;2022-07-23T15:03:36;6.43;;;5.90;;
2488;SDS011;1255;48.716;9.124;2022-07-23T15:06:04;6.53;;;6.03;;
2488;SDS011;1255;48.716;9.124;2022-07-23T15:08:31;5.63;;;5.13;;
2488;SDS011;1255;48.716;9.124;2022-07-23T15:10:58;7.53;;;6.93;;
2488;SDS011;1255;48.716;9.124;2022-07-23T15:13:24;6.30;;;5.70;;
2488;SDS011;1255;48.716;9.124;2022-07-23T15:15:51;6.70;;;6.10;;
2488;SDS011;1255;48.716;9.124;2022-07-23T15:18:18;6.73;;;6.10;;
2488;SDS011;1255;48.716;9.124;2022-07-23T15:20:45;6.37;;;5.80;;
2488;SDS011;1255;48.716;9.124;2022-07-23T15:23:13;6.73;;;5.83;;
2488;SDS011;1255;48.716;9.124;2022-07-23T15:25:40;8.63;;;6.33;;
2488;SDS011;1255;48.716;9.124;2022-07-23T15:28:06;7.07;;;6.57;;
2488;SDS011;1255;48.716;9.124;2022-07-23T15:30:33;6.97;;;6.40;;
2488;SDS011;1255;48.716;9.124;2022-07-23T15:33:00;6.83;;;6.33;;
2488;SDS011;1255;48.716;9.124;2022-07-23T15:35:37;6.60;;;6.00;;
2488;SDS011;1255;48.716;9.124;2022-07-23T15:38:04;6.97;;;6.27;;
2488;SDS011;1255;48.716;9.124;2022-07-23T15:40:32;6.30;;;5.80;;